sensor_id;sensor_type;location;lat;lon;timestamp;temperature;humidity
10419;DHT22;5256;48.728;9.140;2024-02-21T00:01:22;4.10;99.90
10419;DHT22;5256;48.728;9.140;2024-02-21T00:03:48;4.20;99.90
10419;DHT22;5256;48.728;9.140;2024-02-21T00:06:13;4.20;99.90
10419;DHT22;5256;48.728;9.140;2024-02-21T00:08:39;4.20;99.90
10419;DHT22;5256;48.728;9.140;2024-02-21T00:11:04;4.20;99.90
10419;DHT22;5256;48.728;9.140;2024-02-21T00:13:30;4.20;99.90
10419;DHT22;5256;48.728;9.140;2024-02-21T00:15:56;4.20;99.90
10419;DHT22;5256;48.728;9.140;2024-02-21T00:18:21;4.20;99.90
10419;DHT22;5256;48.728;9.140;2024-02-21T00:20:47;4.20;99.90
10419;DHT22;5256;48.728;9.140;2024-02-21T00:23:12;4.20;99.90
10419;DHT22;5256;48.728;9.140;2024-02-21T00:25:38;4.20;99.90
10419;DHT22;5256;48.728;9.140;2024-02-21T00:28:04;4.20;99.90
10419;DHT22;5256;48.728;9.140;2024-02-21T00:30:31;4.20;99.90
10419;DHT22;5256;48.728;9.140;2024-02-21T00:32:56;4.20;99.90
10419;DHT22;5256;48.728;9.140;2024-02-21T00:35:22;4.20;99.90
10419;DHT22;5256;48.728;9.140;2024-02-21T00:37:48;4.20;99.90
10419;DHT22;5256;48.728;9.140;2024-02-21T00:40:13;4.20;99.90
10419;DHT22;5256;48.728;9.140;2024-02-21T00:42:45;4.30;99.90
10419;DHT22;5256;48.728;9.140;2024-02-21T00:45:11;4.30;99.90
10419;DHT22;5256;48.728;9.140;2024-02-21T00:47:37;4.40;99.90
10419;DHT22;5256;48.728;9.140;2024-02-21T00:50:02;4.40;99.90
10419;DHT22;5256;48.728;9.140;2024-02-21T00:52:30;4.40;99.90
10419;DHT22;5256;48.728;9.140;2024-02-21T00:54:55;4.40;99.90
10419;DHT22;5256;48.728;9.140;2024-02-21T00:57:21;4.50;99.90
10419;DHT22;5256;48.728;9.140;2024-02-21T00:59:46;4.60;99.90
10419;DHT22;5256;48.728;9.140;2024-02-21T01:02:12;4.70;99.90
10419;DHT22;5256;48.728;9.140;2024-02-21T01:04:37;4.80;99.90
10419;DHT22;5256;48.728;9.140;2024-02-21T01:07:03;4.90;99.90
10419;DHT22;5256;48.728;9.140;2024-02-21T01:09:28;4.80;99.90
10419;DHT22;5256;48.728;9.140;2024-02-21T01:11:54;4.70;99.90
10419;DHT22;5256;48.728;9.140;2024-02-21T01:14:19;4.70;99.90
10419;DHT22;5256;48.728;9.140;2024-02-21T01:16:45;4.60;99.90
10419;DHT22;5256;48.728;9.140;2024-02-21T01:19:10;4.50;99.90
10419;DHT22;5256;48.728;9.140;2024-02-21T01:21:36;4.50;99.90
10419;DHT22;5256;48.728;9.140;2024-02-21T01:24:02;4.50;99.90
10419;DHT22;5256;48.728;9.140;2024-02-21T01:26:27;4.40;99.90
10419;DHT22;5256;48.728;9.140;2024-02-21T01:28:53;4.40;99.90
10419;DHT22;5256;48.728;9.140;2024-02-21T01:31:18;4.40;99.90
10419;DHT22;5256;48.728;9.140;2024-02-21T01:33:44;4.40;99.90
10419;DHT22;5256;48.728;9.140;2024-02-21T01:36:09;4.40;99.90
10419;DHT22;5256;48.728;9.140;2024-02-21T01:38:35;4.40;99.90
10419;DHT22;5256;48.728;9.140;2024-02-21T01:41:01;4.50;99.90
10419;DHT22;5256;48.728;9.140;2024-02-21T01:43:26;4.50;99.90
10419;DHT22;5256;48.728;9.140;2024-02-21T01:45:53;4.60;99.90
10419;DHT22;5256;48.728;9.140;2024-02-21T01:48:19;4.50;99.90
10419;DHT22;5256;48.728;9.140;2024-02-21T01:50:47;4.50;99.90
10419;DHT22;5256;48.728;9.140;2024-02-21T01:53:21;4.40;99.90
10419;DHT22;5256;48.728;9.140;2024-02-21T01:55:48;4.40;99.90
10419;DHT22;5256;48.728;9.140;2024-02-21T01:58:17;4.40;99.90
10419;DHT22;5256;48.728;9.140;2024-02-21T02:00:45;4.30;99.90
10419;DHT22;5256;48.728;9.140;2024-02-21T02:03:12;4.30;99.90
10419;DHT22;5256;48.728;9.140;2024-02-21T02:05:45;4.40;99.90
10419;DHT22;5256;48.728;9.140;2024-02-21T02:08:13;4.40;99.90
10419;DHT22;5256;48.728;9.140;2024-02-21T02:10:39;4.40;99.90
10419;DHT22;5256;48.728;9.140;2024-02-21T02:13:05;4.40;99.90
10419;DHT22;5256;48.728;9.140;2024-02-21T02:15:45;4.40;99.90
10419;DHT22;5256;48.728;9.140;2024-02-21T02:18:11;4.40;99.90
10419;DHT22;5256;48.728;9.140;2024-02-21T02:20:37;4.40;99.90
10419;DHT22;5256;48.728;9.140;2024-02-21T02:23:31;4.40;99.90
10419;DHT22;5256;48.728;9.140;2024-02-21T02:25:57;4.40;99.90
10419;DHT22;5256;48.728;9.140;2024-02-21T02:28:23;4.30;99.90
10419;DHT22;5256;48.728;9.140;2024-02-21T02:30:49;4.30;99.90
10419;DHT22;5256;48.728;9.140;2024-02-21T02:33:14;4.40;99.90
10419;DHT22;5256;48.728;9.140;2024-02-21T02:35:40;4.40;99.90
10419;DHT22;5256;48.728;9.140;2024-02-21T02:38:06;4.40;99.90
10419;DHT22;5256;48.728;9.140;2024-02-21T02:40:33;4.40;99.90
10419;DHT22;5256;48.728;9.140;2024-02-21T02:42:59;4.40;99.90
10419;DHT22;5256;48.728;9.140;2024-02-21T02:45:25;4.50;99.90
10419;DHT22;5256;48.728;9.140;2024-02-21T02:47:54;4.50;99.90
10419;DHT22;5256;48.728;9.140;2024-02-21T02:50:20;4.60;99.90
10419;DHT22;5256;48.728;9.140;2024-02-21T02:52:46;4.60;99.90
10419;DHT22;5256;48.728;9.140;2024-02-21T02:55:12;4.70;99.90
10419;DHT22;5256;48.728;9.140;2024-02-21T02:57:37;4.70;99.90
10419;DHT22;5256;48.728;9.140;2024-02-21T03:00:03;4.70;99.90
10419;DHT22;5256;48.728;9.140;2024-02-21T03:02:29;4.70;99.90
10419;DHT22;5256;48.728;9.140;2024-02-21T03:04:56;4.80;99.90
10419;DHT22;5256;48.728;9.140;2024-02-21T03:07:24;4.80;99.90
10419;DHT22;5256;48.728;9.140;2024-02-21T03:09:50;4.70;99.90
10419;DHT22;5256;48.728;9.140;2024-02-21T03:12:15;4.80;99.90
10419;DHT22;5256;48.728;9.140;2024-02-21T03:14:49;4.70;99.90
10419;DHT22;5256;48.728;9.140;2024-02-21T03:17:15;4.70;99.90
10419;DHT22;5256;48.728;9.140;2024-02-21T03:19:40;4.60;99.90
10419;DHT22;5256;48.728;9.140;2024-02-21T03:22:06;4.60;99.90
10419;DHT22;5256;48.728;9.140;2024-02-21T03:24:31;4.50;99.90
10419;DHT22;5256;48.728;9.140;2024-02-21T03:26:57;4.50;99.90
10419;DHT22;5256;48.728;9.140;2024-02-21T03:29:25;4.60;99.90
10419;DHT22;5256;48.728;9.140;2024-02-21T03:31:50;4.50;99.90
10419;DHT22;5256;48.728;9.140;2024-02-21T03:34:16;4.50;99.90
10419;DHT22;5256;48.728;9.140;2024-02-21T03:36:41;4.50;99.90
10419;DHT22;5256;48.728;9.140;2024-02-21T03:39:07;4.50;99.90
10419;DHT22;5256;48.728;9.140;2024-02-21T03:41:34;4.50;99.90
10419;DHT22;5256;48.728;9.140;2024-02-21T03:44:00;4.30;99.90
10419;DHT22;5256;48.728;9.140;2024-02-21T03:46:26;4.40;99.90
10419;DHT22;5256;48.728;9.140;2024-02-21T03:48:51;4.30;99.90
10419;DHT22;5256;48.728;9.140;2024-02-21T03:51:17;4.20;99.90
10419;DHT22;5256;48.728;9.140;2024-02-21T03:53:42;4.30;99.90
10419;DHT22;5256;48.728;9.140;2024-02-21T03:56:08;4.30;99.90
10419;DHT22;5256;48.728;9.140;2024-02-21T03:58:34;4.40;99.90
10419;DHT22;5256;48.728;9.140;2024-02-21T04:01:03;4.50;99.90
10419;DHT22;5256;48.728;9.140;2024-02-21T04:03:29;4.60;99.90
10419;DHT22;5256;48.728;9.140;2024-02-21T04:05:55;4.60;99.90
10419;DHT22;5256;48.728;9.140;2024-02-21T04:08:22;4.50;99.90
10419;DHT22;5256;48.728;9.140;2024-02-21T04:10:47;4.50;99.90
10419;DHT22;5256;48.728;9.140;2024-02-21T04:13:13;4.50;99.90
10419;DHT22;5256;48.728;9.140;2024-02-21T04:15:38;4.40;99.90
10419;DHT22;5256;48.728;9.140;2024-02-21T04:18:04;4.40;99.90
10419;DHT22;5256;48.728;9.140;2024-02-21T04:20:30;4.50;99.90
10419;DHT22;5256;48.728;9.140;2024-02-21T04:22:56;4.50;99.90
10419;DHT22;5256;48.728;9.140;2024-02-21T04:25:22;4.50;99.90
10419;DHT22;5256;48.728;9.140;2024-02-21T04:27:47;4.40;99.90
10419;DHT22;5256;48.728;9.140;2024-02-21T04:30:13;4.30;99.90
10419;DHT22;5256;48.728;9.140;2024-02-21T04:32:39;4.10;99.90
10419;DHT22;5256;48.728;9.140;2024-02-21T04:35:05;4.00;99.90
10419;DHT22;5256;48.728;9.140;2024-02-21T04:37:30;4.10;99.90
10419;DHT22;5256;48.728;9.140;2024-02-21T04:39:56;4.20;99.90
10419;DHT22;5256;48.728;9.140;2024-02-21T04:42:22;4.20;99.90
10419;DHT22;5256;48.728;9.140;2024-02-21T04:44:47;4.10;99.90
10419;DHT22;5256;48.728;9.140;2024-02-21T04:47:13;4.10;99.90
10419;DHT22;5256;48.728;9.140;2024-02-21T04:49:39;4.10;99.90
10419;DHT22;5256;48.728;9.140;2024-02-21T04:52:04;4.10;99.90
10419;DHT22;5256;48.728;9.140;2024-02-21T04:54:30;4.20;99.90
10419;DHT22;5256;48.728;9.140;2024-02-21T04:56:55;4.30;99.90
10419;DHT22;5256;48.728;9.140;2024-02-21T04:59:21;4.40;99.90
10419;DHT22;5256;48.728;9.140;2024-02-21T05:01:47;4.30;99.90
10419;DHT22;5256;48.728;9.140;2024-02-21T05:04:12;4.30;99.90
10419;DHT22;5256;48.728;9.140;2024-02-21T05:06:38;4.20;99.90
10419;DHT22;5256;48.728;9.140;2024-02-21T05:09:05;4.30;99.90
10419;DHT22;5256;48.728;9.140;2024-02-21T05:11:31;4.20;99.90
10419;DHT22;5256;48.728;9.140;2024-02-21T05:13:56;4.10;99.90
10419;DHT22;5256;48.728;9.140;2024-02-21T05:16:22;4.10;99.90
10419;DHT22;5256;48.728;9.140;2024-02-21T05:18:47;4.00;99.90
10419;DHT22;5256;48.728;9.140;2024-02-21T05:21:13;4.00;99.90
10419;DHT22;5256;48.728;9.140;2024-02-21T05:23:39;4.00;99.90
10419;DHT22;5256;48.728;9.140;2024-02-21T05:26:07;3.80;99.90
10419;DHT22;5256;48.728;9.140;2024-02-21T05:28:33;3.80;99.90
10419;DHT22;5256;48.728;9.140;2024-02-21T05:30:58;3.70;99.90
10419;DHT22;5256;48.728;9.140;2024-02-21T05:33:24;3.60;99.90
10419;DHT22;5256;48.728;9.140;2024-02-21T05:35:50;3.60;99.90
10419;DHT22;5256;48.728;9.140;2024-02-21T05:38:16;3.60;99.90
10419;DHT22;5256;48.728;9.140;2024-02-21T05:40:42;3.50;99.90
10419;DHT22;5256;48.728;9.140;2024-02-21T05:43:08;3.60;99.90
10419;DHT22;5256;48.728;9.140;2024-02-21T05:45:34;3.70;99.90
10419;DHT22;5256;48.728;9.140;2024-02-21T05:48:00;3.70;99.90
10419;DHT22;5256;48.728;9.140;2024-02-21T05:50:25;3.60;99.90
10419;DHT22;5256;48.728;9.140;2024-02-21T05:52:53;3.60;99.90
10419;DHT22;5256;48.728;9.140;2024-02-21T05:55:19;3.50;99.90
10419;DHT22;5256;48.728;9.140;2024-02-21T05:57:44;3.50;99.90
10419;DHT22;5256;48.728;9.140;2024-02-21T06:00:10;3.40;99.90
10419;DHT22;5256;48.728;9.140;2024-02-21T06:02:36;3.40;99.90
10419;DHT22;5256;48.728;9.140;2024-02-21T06:05:01;3.40;99.90
10419;DHT22;5256;48.728;9.140;2024-02-21T06:07:27;3.40;99.90
10419;DHT22;5256;48.728;9.140;2024-02-21T06:09:52;3.50;99.90
10419;DHT22;5256;48.728;9.140;2024-02-21T06:12:18;3.60;99.90
10419;DHT22;5256;48.728;9.140;2024-02-21T06:14:44;3.70;99.90
10419;DHT22;5256;48.728;9.140;2024-02-21T06:17:10;3.60;99.90
10419;DHT22;5256;48.728;9.140;2024-02-21T06:19:35;3.40;99.90
10419;DHT22;5256;48.728;9.140;2024-02-21T06:22:01;3.30;99.90
10419;DHT22;5256;48.728;9.140;2024-02-21T06:24:27;3.30;99.90
10419;DHT22;5256;48.728;9.140;2024-02-21T06:26:52;3.20;99.90
10419;DHT22;5256;48.728;9.140;2024-02-21T06:29:18;3.20;99.90
10419;DHT22;5256;48.728;9.140;2024-02-21T06:31:43;3.20;99.90
10419;DHT22;5256;48.728;9.140;2024-02-21T06:34:09;3.10;99.90
10419;DHT22;5256;48.728;9.140;2024-02-21T06:36:34;3.10;99.90
10419;DHT22;5256;48.728;9.140;2024-02-21T06:39:00;3.10;99.90
10419;DHT22;5256;48.728;9.140;2024-02-21T06:41:26;3.30;99.90
10419;DHT22;5256;48.728;9.140;2024-02-21T06:43:51;3.40;99.90
10419;DHT22;5256;48.728;9.140;2024-02-21T06:46:23;3.50;99.90
10419;DHT22;5256;48.728;9.140;2024-02-21T06:48:49;3.70;99.90
10419;DHT22;5256;48.728;9.140;2024-02-21T06:51:15;3.70;99.90
10419;DHT22;5256;48.728;9.140;2024-02-21T06:53:40;3.70;99.90
10419;DHT22;5256;48.728;9.140;2024-02-21T06:56:06;3.80;99.90
10419;DHT22;5256;48.728;9.140;2024-02-21T06:58:31;3.80;99.90
10419;DHT22;5256;48.728;9.140;2024-02-21T07:00:57;3.90;99.90
10419;DHT22;5256;48.728;9.140;2024-02-21T07:03:22;4.00;99.90
10419;DHT22;5256;48.728;9.140;2024-02-21T07:05:50;4.00;99.90
10419;DHT22;5256;48.728;9.140;2024-02-21T07:08:15;4.20;99.90
10419;DHT22;5256;48.728;9.140;2024-02-21T07:10:41;4.30;99.90
10419;DHT22;5256;48.728;9.140;2024-02-21T07:13:06;4.30;99.90
10419;DHT22;5256;48.728;9.140;2024-02-21T07:15:32;4.50;99.90
10419;DHT22;5256;48.728;9.140;2024-02-21T07:17:58;4.60;99.90
10419;DHT22;5256;48.728;9.140;2024-02-21T07:20:24;4.60;99.90
10419;DHT22;5256;48.728;9.140;2024-02-21T07:22:50;4.70;99.90
10419;DHT22;5256;48.728;9.140;2024-02-21T07:25:15;4.80;99.90
10419;DHT22;5256;48.728;9.140;2024-02-21T07:27:42;4.90;99.90
10419;DHT22;5256;48.728;9.140;2024-02-21T07:30:08;5.00;99.90
10419;DHT22;5256;48.728;9.140;2024-02-21T07:32:34;5.10;99.90
10419;DHT22;5256;48.728;9.140;2024-02-21T07:35:00;5.30;99.90
10419;DHT22;5256;48.728;9.140;2024-02-21T07:37:25;5.40;99.90
10419;DHT22;5256;48.728;9.140;2024-02-21T07:39:51;5.50;99.90
10419;DHT22;5256;48.728;9.140;2024-02-21T07:42:16;5.60;99.90
10419;DHT22;5256;48.728;9.140;2024-02-21T07:44:42;5.70;99.90
10419;DHT22;5256;48.728;9.140;2024-02-21T07:47:07;5.90;99.90
10419;DHT22;5256;48.728;9.140;2024-02-21T07:49:40;6.10;99.90
10419;DHT22;5256;48.728;9.140;2024-02-21T07:52:05;6.20;99.90
10419;DHT22;5256;48.728;9.140;2024-02-21T07:54:31;6.30;99.90
10419;DHT22;5256;48.728;9.140;2024-02-21T07:56:56;6.30;99.90
10419;DHT22;5256;48.728;9.140;2024-02-21T07:59:22;6.50;99.90
10419;DHT22;5256;48.728;9.140;2024-02-21T08:01:48;6.60;99.90
10419;DHT22;5256;48.728;9.140;2024-02-21T08:04:13;6.80;99.90
10419;DHT22;5256;48.728;9.140;2024-02-21T08:06:40;6.90;99.90
10419;DHT22;5256;48.728;9.140;2024-02-21T08:09:05;7.00;99.90
10419;DHT22;5256;48.728;9.140;2024-02-21T08:11:31;7.10;99.90
10419;DHT22;5256;48.728;9.140;2024-02-21T08:13:57;7.20;99.90
10419;DHT22;5256;48.728;9.140;2024-02-21T08:16:23;7.30;99.90
10419;DHT22;5256;48.728;9.140;2024-02-21T08:18:48;7.20;99.90
10419;DHT22;5256;48.728;9.140;2024-02-21T08:21:14;7.30;99.90
10419;DHT22;5256;48.728;9.140;2024-02-21T08:23:40;7.30;99.90
10419;DHT22;5256;48.728;9.140;2024-02-21T08:26:05;7.30;99.90
10419;DHT22;5256;48.728;9.140;2024-02-21T08:28:32;7.30;99.90
10419;DHT22;5256;48.728;9.140;2024-02-21T08:30:58;7.40;99.90
10419;DHT22;5256;48.728;9.140;2024-02-21T08:33:23;7.60;99.90
10419;DHT22;5256;48.728;9.140;2024-02-21T08:35:51;7.60;99.90
10419;DHT22;5256;48.728;9.140;2024-02-21T08:38:17;7.60;99.90
10419;DHT22;5256;48.728;9.140;2024-02-21T08:40:44;7.60;99.90
10419;DHT22;5256;48.728;9.140;2024-02-21T08:43:13;7.60;99.90
10419;DHT22;5256;48.728;9.140;2024-02-21T08:45:39;7.70;99.90
10419;DHT22;5256;48.728;9.140;2024-02-21T08:48:05;7.70;99.90
10419;DHT22;5256;48.728;9.140;2024-02-21T08:50:31;7.80;99.90
10419;DHT22;5256;48.728;9.140;2024-02-21T08:52:57;7.90;99.90
10419;DHT22;5256;48.728;9.140;2024-02-21T08:55:23;8.00;99.90
10419;DHT22;5256;48.728;9.140;2024-02-21T08:57:49;8.00;99.90
10419;DHT22;5256;48.728;9.140;2024-02-21T09:00:16;8.00;99.90
10419;DHT22;5256;48.728;9.140;2024-02-21T09:02:42;8.10;99.90
10419;DHT22;5256;48.728;9.140;2024-02-21T09:05:11;8.20;99.90
10419;DHT22;5256;48.728;9.140;2024-02-21T09:07:36;8.30;99.90
10419;DHT22;5256;48.728;9.140;2024-02-21T09:10:02;8.40;99.90
10419;DHT22;5256;48.728;9.140;2024-02-21T09:12:28;8.40;99.90
10419;DHT22;5256;48.728;9.140;2024-02-21T09:14:54;8.30;99.90
10419;DHT22;5256;48.728;9.140;2024-02-21T09:17:20;8.40;99.90
10419;DHT22;5256;48.728;9.140;2024-02-21T09:19:47;8.40;99.90
10419;DHT22;5256;48.728;9.140;2024-02-21T09:22:13;8.40;99.90
10419;DHT22;5256;48.728;9.140;2024-02-21T09:24:39;8.50;99.90
10419;DHT22;5256;48.728;9.140;2024-02-21T09:27:04;8.50;99.90
10419;DHT22;5256;48.728;9.140;2024-02-21T09:29:31;8.50;99.90
10419;DHT22;5256;48.728;9.140;2024-02-21T09:31:59;8.40;99.90
10419;DHT22;5256;48.728;9.140;2024-02-21T09:34:24;8.50;99.90
10419;DHT22;5256;48.728;9.140;2024-02-21T09:36:50;8.60;99.90
10419;DHT22;5256;48.728;9.140;2024-02-21T09:39:15;8.70;99.90
10419;DHT22;5256;48.728;9.140;2024-02-21T09:41:47;8.70;99.90
10419;DHT22;5256;48.728;9.140;2024-02-21T09:44:19;8.80;99.90
10419;DHT22;5256;48.728;9.140;2024-02-21T09:47:03;8.80;99.90
10419;DHT22;5256;48.728;9.140;2024-02-21T09:49:33;9.00;99.90
10419;DHT22;5256;48.728;9.140;2024-02-21T09:52:01;9.10;99.90
10419;DHT22;5256;48.728;9.140;2024-02-21T09:54:30;9.10;99.90
10419;DHT22;5256;48.728;9.140;2024-02-21T09:57:00;9.10;99.90
10419;DHT22;5256;48.728;9.140;2024-02-21T09:59:27;9.00;99.90
10419;DHT22;5256;48.728;9.140;2024-02-21T10:01:53;9.10;99.90
10419;DHT22;5256;48.728;9.140;2024-02-21T10:04:20;9.20;99.90
10419;DHT22;5256;48.728;9.140;2024-02-21T10:06:46;9.40;99.90
10419;DHT22;5256;48.728;9.140;2024-02-21T10:09:27;9.50;99.90
10419;DHT22;5256;48.728;9.140;2024-02-21T10:11:54;9.60;99.90
10419;DHT22;5256;48.728;9.140;2024-02-21T10:14:19;9.70;99.90
10419;DHT22;5256;48.728;9.140;2024-02-21T10:16:48;9.80;99.90
10419;DHT22;5256;48.728;9.140;2024-02-21T10:19:20;9.80;99.90
10419;DHT22;5256;48.728;9.140;2024-02-21T10:24:27;9.90;99.90
10419;DHT22;5256;48.728;9.140;2024-02-21T10:27:06;10.00;99.90
10419;DHT22;5256;48.728;9.140;2024-02-21T10:29:36;10.10;99.90
10419;DHT22;5256;48.728;9.140;2024-02-21T10:32:13;10.20;99.90
10419;DHT22;5256;48.728;9.140;2024-02-21T10:34:41;10.40;99.90
10419;DHT22;5256;48.728;9.140;2024-02-21T10:37:08;10.40;99.90
10419;DHT22;5256;48.728;9.140;2024-02-21T10:39:37;10.50;99.90
10419;DHT22;5256;48.728;9.140;2024-02-21T10:42:03;10.70;99.90
10419;DHT22;5256;48.728;9.140;2024-02-21T10:44:34;10.80;99.90
10419;DHT22;5256;48.728;9.140;2024-02-21T10:47:07;10.90;99.90
10419;DHT22;5256;48.728;9.140;2024-02-21T10:49:41;11.00;99.90
10419;DHT22;5256;48.728;9.140;2024-02-21T10:52:15;11.10;99.90
10419;DHT22;5256;48.728;9.140;2024-02-21T10:54:50;11.20;99.90
10419;DHT22;5256;48.728;9.140;2024-02-21T10:57:17;11.20;99.90
10419;DHT22;5256;48.728;9.140;2024-02-21T10:59:45;11.20;99.90
10419;DHT22;5256;48.728;9.140;2024-02-21T11:02:11;11.30;99.90
10419;DHT22;5256;48.728;9.140;2024-02-21T11:04:37;11.30;99.90
10419;DHT22;5256;48.728;9.140;2024-02-21T11:07:05;11.30;99.90
10419;DHT22;5256;48.728;9.140;2024-02-21T11:09:31;11.20;99.90
10419;DHT22;5256;48.728;9.140;2024-02-21T11:12:05;11.20;99.90
10419;DHT22;5256;48.728;9.140;2024-02-21T11:14:32;11.20;99.90
10419;DHT22;5256;48.728;9.140;2024-02-21T11:16:58;11.20;99.90
10419;DHT22;5256;48.728;9.140;2024-02-21T11:19:28;11.30;99.90
10419;DHT22;5256;48.728;9.140;2024-02-21T11:21:55;11.30;99.90
10419;DHT22;5256;48.728;9.140;2024-02-21T11:24:29;11.50;99.90
10419;DHT22;5256;48.728;9.140;2024-02-21T11:27:14;11.50;99.90
10419;DHT22;5256;48.728;9.140;2024-02-21T11:29:47;11.40;99.90
10419;DHT22;5256;48.728;9.140;2024-02-21T11:32:15;11.40;99.90
10419;DHT22;5256;48.728;9.140;2024-02-21T11:34:41;11.50;99.90
10419;DHT22;5256;48.728;9.140;2024-02-21T11:37:15;11.50;99.90
10419;DHT22;5256;48.728;9.140;2024-02-21T11:39:41;11.60;99.90
10419;DHT22;5256;48.728;9.140;2024-02-21T11:42:08;11.70;99.90
10419;DHT22;5256;48.728;9.140;2024-02-21T11:44:35;11.70;99.90
10419;DHT22;5256;48.728;9.140;2024-02-21T11:47:03;11.70;99.90
10419;DHT22;5256;48.728;9.140;2024-02-21T11:49:29;11.80;99.90
10419;DHT22;5256;48.728;9.140;2024-02-21T11:51:59;11.80;99.90
10419;DHT22;5256;48.728;9.140;2024-02-21T11:54:29;11.90;99.90
10419;DHT22;5256;48.728;9.140;2024-02-21T11:56:55;11.90;99.90
10419;DHT22;5256;48.728;9.140;2024-02-21T11:59:20;12.00;99.90
10419;DHT22;5256;48.728;9.140;2024-02-21T12:01:48;12.10;99.90
10419;DHT22;5256;48.728;9.140;2024-02-21T12:04:13;12.10;99.90
10419;DHT22;5256;48.728;9.140;2024-02-21T12:06:39;12.10;99.90
10419;DHT22;5256;48.728;9.140;2024-02-21T12:09:08;12.10;99.90
10419;DHT22;5256;48.728;9.140;2024-02-21T12:11:36;12.20;99.90
10419;DHT22;5256;48.728;9.140;2024-02-21T12:14:03;12.10;99.90
10419;DHT22;5256;48.728;9.140;2024-02-21T12:16:32;12.10;99.90
10419;DHT22;5256;48.728;9.140;2024-02-21T12:18:59;12.20;99.90
10419;DHT22;5256;48.728;9.140;2024-02-21T12:21:31;12.20;99.90
10419;DHT22;5256;48.728;9.140;2024-02-21T12:23:58;12.30;99.90
10419;DHT22;5256;48.728;9.140;2024-02-21T12:26:24;12.30;99.40
10419;DHT22;5256;48.728;9.140;2024-02-21T12:28:49;12.40;99.50
10419;DHT22;5256;48.728;9.140;2024-02-21T12:31:15;12.40;99.60
10419;DHT22;5256;48.728;9.140;2024-02-21T12:33:44;12.60;99.00
10419;DHT22;5256;48.728;9.140;2024-02-21T12:36:10;12.40;98.90
10419;DHT22;5256;48.728;9.140;2024-02-21T12:38:36;12.50;99.40
10419;DHT22;5256;48.728;9.140;2024-02-21T12:41:02;12.60;99.90
10419;DHT22;5256;48.728;9.140;2024-02-21T12:43:28;12.60;99.50
10419;DHT22;5256;48.728;9.140;2024-02-21T12:45:54;12.50;99.70
10419;DHT22;5256;48.728;9.140;2024-02-21T12:48:20;12.50;99.50
10419;DHT22;5256;48.728;9.140;2024-02-21T12:50:50;12.50;99.50
10419;DHT22;5256;48.728;9.140;2024-02-21T12:53:17;12.60;99.70
10419;DHT22;5256;48.728;9.140;2024-02-21T12:55:44;12.60;98.70
10419;DHT22;5256;48.728;9.140;2024-02-21T12:58:10;12.70;98.80
10419;DHT22;5256;48.728;9.140;2024-02-21T13:00:36;12.60;99.10
10419;DHT22;5256;48.728;9.140;2024-02-21T13:03:03;12.50;98.70
10419;DHT22;5256;48.728;9.140;2024-02-21T13:05:29;12.30;98.30
10419;DHT22;5256;48.728;9.140;2024-02-21T13:07:54;12.20;98.30
10419;DHT22;5256;48.728;9.140;2024-02-21T13:10:20;12.20;98.30
10419;DHT22;5256;48.728;9.140;2024-02-21T13:12:47;12.30;98.30
10419;DHT22;5256;48.728;9.140;2024-02-21T13:15:12;12.30;98.50
10419;DHT22;5256;48.728;9.140;2024-02-21T13:17:38;12.50;98.10
10419;DHT22;5256;48.728;9.140;2024-02-21T13:20:04;12.50;98.30
10419;DHT22;5256;48.728;9.140;2024-02-21T13:22:30;12.50;98.70
10419;DHT22;5256;48.728;9.140;2024-02-21T13:24:55;12.60;98.60
10419;DHT22;5256;48.728;9.140;2024-02-21T13:27:21;12.70;97.00
10419;DHT22;5256;48.728;9.140;2024-02-21T13:29:46;12.70;97.70
10419;DHT22;5256;48.728;9.140;2024-02-21T13:32:12;12.80;97.70
10419;DHT22;5256;48.728;9.140;2024-02-21T13:34:37;12.90;97.60
10419;DHT22;5256;48.728;9.140;2024-02-21T13:37:03;12.80;97.70
10419;DHT22;5256;48.728;9.140;2024-02-21T13:39:30;12.70;97.80
10419;DHT22;5256;48.728;9.140;2024-02-21T13:41:55;12.70;97.70
10419;DHT22;5256;48.728;9.140;2024-02-21T13:44:21;12.50;98.00
10419;DHT22;5256;48.728;9.140;2024-02-21T13:46:46;12.60;98.20
10419;DHT22;5256;48.728;9.140;2024-02-21T13:49:12;12.60;98.70
10419;DHT22;5256;48.728;9.140;2024-02-21T13:51:38;12.80;97.90
10419;DHT22;5256;48.728;9.140;2024-02-21T13:54:04;12.90;97.80
10419;DHT22;5256;48.728;9.140;2024-02-21T13:56:30;12.90;97.90
10419;DHT22;5256;48.728;9.140;2024-02-21T13:58:58;12.70;97.40
10419;DHT22;5256;48.728;9.140;2024-02-21T14:01:23;12.70;97.80
10419;DHT22;5256;48.728;9.140;2024-02-21T14:03:49;12.70;98.20
10419;DHT22;5256;48.728;9.140;2024-02-21T14:06:14;12.60;97.50
10419;DHT22;5256;48.728;9.140;2024-02-21T14:08:40;12.60;97.40
10419;DHT22;5256;48.728;9.140;2024-02-21T14:11:07;12.40;97.30
10419;DHT22;5256;48.728;9.140;2024-02-21T14:13:32;12.40;97.50
10419;DHT22;5256;48.728;9.140;2024-02-21T14:15:58;12.60;97.30
10419;DHT22;5256;48.728;9.140;2024-02-21T14:18:23;12.60;97.00
10419;DHT22;5256;48.728;9.140;2024-02-21T14:20:49;12.60;97.30
10419;DHT22;5256;48.728;9.140;2024-02-21T14:23:14;12.60;97.00
10419;DHT22;5256;48.728;9.140;2024-02-21T14:25:40;12.40;97.10
10419;DHT22;5256;48.728;9.140;2024-02-21T14:28:07;12.30;97.20
10419;DHT22;5256;48.728;9.140;2024-02-21T14:30:34;12.40;97.10
10419;DHT22;5256;48.728;9.140;2024-02-21T14:33:00;12.50;96.30
10419;DHT22;5256;48.728;9.140;2024-02-21T14:35:26;12.50;97.30
10419;DHT22;5256;48.728;9.140;2024-02-21T14:37:52;12.30;96.60
10419;DHT22;5256;48.728;9.140;2024-02-21T14:40:22;12.20;97.60
10419;DHT22;5256;48.728;9.140;2024-02-21T14:42:48;12.20;97.30
10419;DHT22;5256;48.728;9.140;2024-02-21T14:45:13;12.30;97.40
10419;DHT22;5256;48.728;9.140;2024-02-21T14:47:39;12.40;97.50
10419;DHT22;5256;48.728;9.140;2024-02-21T14:50:05;12.40;97.60
10419;DHT22;5256;48.728;9.140;2024-02-21T14:52:31;12.50;97.30
10419;DHT22;5256;48.728;9.140;2024-02-21T14:54:58;12.30;97.30
10419;DHT22;5256;48.728;9.140;2024-02-21T14:57:24;12.30;96.90
10419;DHT22;5256;48.728;9.140;2024-02-21T14:59:50;12.20;98.00
10419;DHT22;5256;48.728;9.140;2024-02-21T15:02:23;12.30;97.30
10419;DHT22;5256;48.728;9.140;2024-02-21T15:04:49;12.20;97.90
10419;DHT22;5256;48.728;9.140;2024-02-21T15:07:16;12.20;98.30
10419;DHT22;5256;48.728;9.140;2024-02-21T15:09:42;12.00;98.40
10419;DHT22;5256;48.728;9.140;2024-02-21T15:12:08;12.10;98.90
10419;DHT22;5256;48.728;9.140;2024-02-21T15:14:33;12.00;99.20
10419;DHT22;5256;48.728;9.140;2024-02-21T15:16:59;12.00;99.40
10419;DHT22;5256;48.728;9.140;2024-02-21T15:19:25;11.90;99.50
10419;DHT22;5256;48.728;9.140;2024-02-21T15:21:50;11.80;99.90
10419;DHT22;5256;48.728;9.140;2024-02-21T15:24:16;11.80;99.70
10419;DHT22;5256;48.728;9.140;2024-02-21T15:26:43;11.70;99.90
10419;DHT22;5256;48.728;9.140;2024-02-21T15:29:08;11.50;99.90
10419;DHT22;5256;48.728;9.140;2024-02-21T15:31:34;11.40;99.90
10419;DHT22;5256;48.728;9.140;2024-02-21T15:34:00;11.40;99.90
10419;DHT22;5256;48.728;9.140;2024-02-21T15:36:25;11.40;99.90
10419;DHT22;5256;48.728;9.140;2024-02-21T15:38:53;11.40;99.90
10419;DHT22;5256;48.728;9.140;2024-02-21T15:41:19;11.40;99.90
10419;DHT22;5256;48.728;9.140;2024-02-21T15:43:46;11.30;99.90
10419;DHT22;5256;48.728;9.140;2024-02-21T15:46:12;11.30;99.90
10419;DHT22;5256;48.728;9.140;2024-02-21T15:48:38;11.10;99.90
10419;DHT22;5256;48.728;9.140;2024-02-21T15:51:04;11.10;99.90
10419;DHT22;5256;48.728;9.140;2024-02-21T15:53:30;11.10;99.90
10419;DHT22;5256;48.728;9.140;2024-02-21T15:55:55;11.00;99.90